createdAt,value
2018-08-28T00:01:35.067Z,15.60
2018-08-28T00:04:03.681Z,15.60
2018-08-28T00:06:32.289Z,15.50
2018-08-28T00:09:00.906Z,15.50
2018-08-28T00:11:29.583Z,15.40
2018-08-28T00:13:58.278Z,15.30
2018-08-28T00:16:26.873Z,15.30
2018-08-28T00:18:55.513Z,15.20
2018-08-28T00:21:24.402Z,15.20
2018-08-28T00:23:53.866Z,15.10
2018-08-28T00:26:22.756Z,15.10
2018-08-28T00:28:51.614Z,15.00
2018-08-28T00:31:20.789Z,15.00
2018-08-28T00:33:49.720Z,14.90
2018-08-28T00:36:18.863Z,14.90
2018-08-28T00:38:48.822Z,14.90
2018-08-28T00:41:17.988Z,14.80
2018-08-28T00:43:46.912Z,14.70
2018-08-28T00:46:15.748Z,14.60
2018-08-28T00:48:44.430Z,14.60
2018-08-28T00:51:13.082Z,14.50
2018-08-28T00:53:41.679Z,14.40
2018-08-28T00:56:10.275Z,14.40
2018-08-28T00:58:39.046Z,14.40
2018-08-28T01:01:07.778Z,14.40
2018-08-28T01:03:36.517Z,14.40
2018-08-28T01:06:05.510Z,14.30
2018-08-28T01:08:34.109Z,14.30
2018-08-28T01:11:02.711Z,14.30
2018-08-28T01:13:31.303Z,14.30
2018-08-28T01:15:59.913Z,14.20
2018-08-28T01:18:28.501Z,14.20
2018-08-28T01:20:57.086Z,14.10
2018-08-28T01:23:25.730Z,14.10
2018-08-28T01:25:54.353Z,14.00
2018-08-28T01:28:23.273Z,13.90
2018-08-28T01:30:52.114Z,13.80
2018-08-28T01:33:21.162Z,13.80
2018-08-28T01:35:50.137Z,13.80
2018-08-28T01:38:19.184Z,13.70
2018-08-28T01:40:48.209Z,13.60
2018-08-28T01:43:23.083Z,13.50
2018-08-28T01:45:52.765Z,13.50
2018-08-28T01:48:22.280Z,13.40
2018-08-28T01:50:51.516Z,13.40
2018-08-28T01:53:20.434Z,13.40
2018-08-28T01:55:49.547Z,13.40
2018-08-28T01:58:18.602Z,13.40
2018-08-28T02:00:47.584Z,13.40
2018-08-28T02:03:16.930Z,13.40
2018-08-28T02:05:45.799Z,13.30
2018-08-28T02:08:14.485Z,13.30
2018-08-28T02:10:43.086Z,13.30
2018-08-28T02:13:11.722Z,13.20
2018-08-28T02:15:40.346Z,13.10
2018-08-28T02:18:09.045Z,13.10
2018-08-28T02:20:37.781Z,13.10
2018-08-28T02:23:06.621Z,13.10
2018-08-28T02:25:35.447Z,13.10
2018-08-28T02:28:04.221Z,13.00
2018-08-28T02:30:32.906Z,13.00
2018-08-28T02:33:01.533Z,13.00
2018-08-28T02:35:30.110Z,13.10
2018-08-28T02:37:58.709Z,12.90
2018-08-28T02:40:27.314Z,12.90
2018-08-28T02:42:55.998Z,12.90
2018-08-28T02:45:24.627Z,12.90
2018-08-28T02:47:53.531Z,12.80
2018-08-28T02:50:22.372Z,12.80
2018-08-28T02:52:51.431Z,12.80
2018-08-28T02:55:20.371Z,12.70
2018-08-28T02:57:49.360Z,12.70
2018-08-28T03:00:18.663Z,12.70
2018-08-28T03:02:48.481Z,12.70
2018-08-28T03:05:17.427Z,12.70
2018-08-28T03:07:47.137Z,12.60
2018-08-28T03:10:15.831Z,12.70
2018-08-28T03:12:44.511Z,12.60
2018-08-28T03:15:13.098Z,12.60
2018-08-28T03:17:41.702Z,12.60
2018-08-28T03:20:10.313Z,12.60
2018-08-28T03:22:39.037Z,12.60
2018-08-28T03:25:08.010Z,12.60
2018-08-28T03:27:36.940Z,12.60
2018-08-28T03:30:05.788Z,12.50
2018-08-28T03:32:35.022Z,12.50
2018-08-28T03:35:03.683Z,12.50
2018-08-28T03:37:32.697Z,12.50
2018-08-28T03:40:01.283Z,12.50
2018-08-28T03:42:29.925Z,12.30
2018-08-28T03:44:58.502Z,12.30
2018-08-28T03:47:27.112Z,12.30
2018-08-28T03:49:55.686Z,12.30
2018-08-28T03:52:24.510Z,12.30
2018-08-28T03:54:53.530Z,12.20
2018-08-28T03:57:22.306Z,12.20
2018-08-28T03:59:51.438Z,12.20
2018-08-28T04:02:20.422Z,12.20
2018-08-28T04:04:49.918Z,12.10
2018-08-28T04:07:19.074Z,12.10
2018-08-28T04:09:48.134Z,12.10
2018-08-28T04:12:16.999Z,12.10
2018-08-28T04:14:46.923Z,12.20
2018-08-28T04:17:15.858Z,12.20
2018-08-28T04:19:44.466Z,12.20
2018-08-28T04:22:13.060Z,12.20
2018-08-28T04:24:41.671Z,12.20
2018-08-28T04:27:10.293Z,12.20
2018-08-28T04:29:38.962Z,12.10
2018-08-28T04:32:07.717Z,12.10
2018-08-28T04:34:36.479Z,12.00
2018-08-28T04:37:05.230Z,11.90
2018-08-28T04:39:33.873Z,11.80
2018-08-28T04:42:02.570Z,11.90
2018-08-28T04:44:31.154Z,11.80
2018-08-28T04:46:59.750Z,11.90
2018-08-28T04:49:28.413Z,11.90
2018-08-28T04:51:57.199Z,11.70
2018-08-28T04:54:25.921Z,11.80
2018-08-28T04:56:54.633Z,11.80
2018-08-28T04:59:23.341Z,11.80
2018-08-28T05:01:52.136Z,11.90
2018-08-28T05:04:21.020Z,11.90
2018-08-28T05:06:49.905Z,12.00
2018-08-28T05:09:18.975Z,12.10
2018-08-28T05:11:47.975Z,12.10
2018-08-28T05:14:16.849Z,12.10
2018-08-28T05:16:45.524Z,12.20
2018-08-28T05:19:14.176Z,12.20
2018-08-28T05:21:42.932Z,12.20
2018-08-28T05:24:11.601Z,12.20
2018-08-28T05:26:40.219Z,12.20
2018-08-28T05:29:08.943Z,12.30
2018-08-28T05:31:37.566Z,12.30
2018-08-28T05:34:06.677Z,12.40
2018-08-28T05:36:36.810Z,12.40
2018-08-28T05:39:06.859Z,12.50
2018-08-28T05:41:35.542Z,12.60
2018-08-28T05:44:04.259Z,12.60
2018-08-28T05:46:32.916Z,12.70
2018-08-28T05:49:01.540Z,12.80
2018-08-28T05:51:30.245Z,12.80
2018-08-28T05:53:58.864Z,12.90
2018-08-28T05:56:27.524Z,13.00
2018-08-28T05:58:56.273Z,13.00
2018-08-28T06:01:24.902Z,13.10
2018-08-28T06:03:53.991Z,13.20
2018-08-28T06:06:22.996Z,13.30
2018-08-28T06:08:52.139Z,13.30
2018-08-28T06:11:21.162Z,13.40
2018-08-28T06:13:50.166Z,13.40
2018-08-28T06:16:19.167Z,13.60
2018-08-28T06:18:48.664Z,13.70
2018-08-28T06:21:17.863Z,13.70
2018-08-28T06:23:46.797Z,13.90
2018-08-28T06:26:15.675Z,14.00
2018-08-28T06:28:44.641Z,14.10
2018-08-28T06:31:13.381Z,14.20
2018-08-28T06:33:42.034Z,14.40
2018-08-28T06:36:10.626Z,14.50
2018-08-28T06:38:39.387Z,14.70
2018-08-28T06:41:08.260Z,14.80
2018-08-28T06:43:37.220Z,14.90
2018-08-28T06:46:06.257Z,15.00
2018-08-28T06:48:34.957Z,15.20
2018-08-28T06:51:03.581Z,15.30
2018-08-28T06:53:32.212Z,15.50
2018-08-28T06:56:00.850Z,15.60
2018-08-28T06:58:29.441Z,15.70
2018-08-28T07:00:58.719Z,15.80
2018-08-28T07:03:27.307Z,16.00
2018-08-28T07:05:55.913Z,16.00
2018-08-28T07:08:24.536Z,16.20
2018-08-28T07:10:53.268Z,16.30
2018-08-28T07:13:22.047Z,16.40
2018-08-28T07:15:52.075Z,16.50
2018-08-28T07:18:20.933Z,16.50
2018-08-28T07:20:49.964Z,16.60
2018-08-28T07:23:19.064Z,16.80
2018-08-28T07:25:48.419Z,16.90
2018-08-28T07:28:17.143Z,16.90
2018-08-28T07:30:46.320Z,17.00
2018-08-28T07:33:15.301Z,17.10
2018-08-28T07:35:44.346Z,17.20
2018-08-28T07:38:12.967Z,17.20
2018-08-28T07:40:41.566Z,17.30
2018-08-28T07:43:10.200Z,17.40
2018-08-28T07:45:38.822Z,17.50
2018-08-28T07:48:07.807Z,17.60
2018-08-28T07:50:36.538Z,17.60
2018-08-28T07:53:05.280Z,17.80
2018-08-28T07:55:33.895Z,17.80
2018-08-28T07:58:02.534Z,17.90
2018-08-28T08:00:31.235Z,18.10
2018-08-28T08:02:59.829Z,18.20
2018-08-28T08:05:28.409Z,18.30
2018-08-28T08:07:57.011Z,18.50
2018-08-28T08:10:25.628Z,18.60
2018-08-28T08:12:54.507Z,18.70
2018-08-28T08:15:23.443Z,18.80
2018-08-28T08:17:52.306Z,18.80
2018-08-28T08:20:21.231Z,18.90
2018-08-28T08:22:50.367Z,19.00
2018-08-28T08:25:19.627Z,19.10
2018-08-28T08:27:48.527Z,19.20
2018-08-28T08:30:17.668Z,19.30
2018-08-28T08:32:46.378Z,19.40
2018-08-28T08:35:15.069Z,19.50
2018-08-28T08:37:43.617Z,19.60
2018-08-28T08:40:12.242Z,19.70
2018-08-28T08:42:40.813Z,19.70
2018-08-28T08:45:09.464Z,19.80
2018-08-28T08:47:38.162Z,19.90
2018-08-28T08:50:07.059Z,20.10
2018-08-28T08:52:35.725Z,20.20
2018-08-28T08:55:04.459Z,20.30
2018-08-28T08:57:33.082Z,20.40
2018-08-28T09:00:01.691Z,20.50
2018-08-28T09:02:30.323Z,20.60
2018-08-28T09:04:58.977Z,20.70
2018-08-28T09:07:28.227Z,20.80
2018-08-28T09:09:56.833Z,20.90
2018-08-28T09:12:25.468Z,21.20
2018-08-28T09:14:54.138Z,21.20
2018-08-28T09:17:22.981Z,21.40
2018-08-28T09:19:51.796Z,21.30
2018-08-28T09:22:22.403Z,21.50
2018-08-28T09:24:55.611Z,21.50
2018-08-28T09:27:24.403Z,21.40
2018-08-28T09:29:53.214Z,21.20
2018-08-28T09:32:22.190Z,21.10
2018-08-28T09:34:51.078Z,21.20
2018-08-28T09:37:20.635Z,20.90
2018-08-28T09:39:49.819Z,20.80
2018-08-28T09:42:20.018Z,20.80
2018-08-28T09:44:49.245Z,21.20
2018-08-28T09:47:18.360Z,21.60
2018-08-28T09:49:47.686Z,21.80
2018-08-28T09:52:17.221Z,21.80
2018-08-28T09:54:46.038Z,21.90
2018-08-28T09:57:15.490Z,22.10
2018-08-28T09:59:44.170Z,22.20
2018-08-28T10:02:12.994Z,22.30
2018-08-28T10:04:41.661Z,22.40
2018-08-28T10:07:11.154Z,22.30
2018-08-28T10:09:39.804Z,22.00
2018-08-28T10:12:08.525Z,22.20
2018-08-28T10:14:37.277Z,22.50
2018-08-28T10:17:06.156Z,22.80
2018-08-28T10:19:34.861Z,23.10
2018-08-28T10:22:03.466Z,22.90
2018-08-28T10:24:32.047Z,23.00
2018-08-28T10:27:00.643Z,22.90
2018-08-28T10:29:29.418Z,23.00
2018-08-28T10:31:58.915Z,23.20
2018-08-28T10:34:27.534Z,23.10
2018-08-28T10:36:56.132Z,22.90
2018-08-28T10:39:25.054Z,23.10
2018-08-28T10:41:53.819Z,23.50
2018-08-28T10:44:23.618Z,23.60
2018-08-28T10:46:52.489Z,23.90
2018-08-28T10:49:22.164Z,24.00
2018-08-28T10:51:51.182Z,23.80
2018-08-28T10:54:20.368Z,23.50
2018-08-28T10:56:49.262Z,23.60
2018-08-28T10:59:18.093Z,23.90
2018-08-28T11:01:47.055Z,24.30
2018-08-28T11:04:15.758Z,24.70
2018-08-28T11:06:44.413Z,24.90
2018-08-28T11:09:13.015Z,25.10
2018-08-28T11:11:41.643Z,25.70
2018-08-28T11:14:10.586Z,25.90
2018-08-28T11:16:39.171Z,25.50
2018-08-28T11:19:07.913Z,25.80
2018-08-28T11:21:36.496Z,25.60
2018-08-28T11:24:05.177Z,25.30
2018-08-28T11:26:33.793Z,25.80
2018-08-28T11:29:02.347Z,26.00
2018-08-28T11:31:31.024Z,26.00
2018-08-28T11:33:59.616Z,25.70
2018-08-28T11:36:28.310Z,25.20
2018-08-28T11:38:56.901Z,25.10
2018-08-28T11:41:25.503Z,24.80
2018-08-28T11:43:54.525Z,24.40
2018-08-28T11:46:23.537Z,24.20
2018-08-28T11:48:52.303Z,24.20
2018-08-28T11:51:21.099Z,24.20
2018-08-28T11:53:50.229Z,24.20
2018-08-28T11:56:19.282Z,24.00
2018-08-28T11:58:48.313Z,24.10
2018-08-28T12:01:17.245Z,24.50
2018-08-28T12:03:46.618Z,25.00
2018-08-28T12:06:15.293Z,25.00
2018-08-28T12:08:43.886Z,24.50
2018-08-28T12:11:12.516Z,24.20
2018-08-28T12:13:41.147Z,24.00
2018-08-28T12:16:09.795Z,24.00
2018-08-28T12:18:38.601Z,24.20
2018-08-28T12:21:07.513Z,25.10
2018-08-28T12:23:36.908Z,25.60
2018-08-28T12:26:05.732Z,26.40
2018-08-28T12:28:34.392Z,27.00
2018-08-28T12:31:03.985Z,27.30
2018-08-28T12:33:32.617Z,27.90
2018-08-28T12:36:01.221Z,27.90
2018-08-28T12:38:29.831Z,28.10
2018-08-28T12:41:00.322Z,28.20
2018-08-28T12:43:28.928Z,27.90
2018-08-28T12:45:57.506Z,28.10
2018-08-28T12:48:26.096Z,28.00
2018-08-28T12:50:54.902Z,28.20
2018-08-28T12:53:23.686Z,28.30
2018-08-28T12:55:52.697Z,28.80
2018-08-28T12:58:21.711Z,28.10
2018-08-28T13:00:50.554Z,27.90
2018-08-28T13:03:20.699Z,27.60
2018-08-28T13:05:49.708Z,27.90
2018-08-28T13:08:18.898Z,27.80
2018-08-28T13:10:47.956Z,28.00
2018-08-28T13:13:16.940Z,27.90
2018-08-28T13:15:45.697Z,28.30
2018-08-28T13:18:14.363Z,28.40
2018-08-28T13:20:43.026Z,28.40
2018-08-28T13:23:11.607Z,28.70
2018-08-28T13:25:40.316Z,28.70
2018-08-28T13:28:08.927Z,28.60
2018-08-28T13:30:37.739Z,28.60
2018-08-28T13:33:06.490Z,29.00
2018-08-28T13:35:35.186Z,29.10
2018-08-28T13:38:03.885Z,29.20
2018-08-28T13:40:32.762Z,29.10
2018-08-28T13:43:01.152Z,29.00
2018-08-28T13:45:29.741Z,29.20
2018-08-28T13:47:58.346Z,29.20
2018-08-28T13:50:26.933Z,28.80
2018-08-28T13:52:55.534Z,28.90
2018-08-28T13:55:24.256Z,28.90
2018-08-28T13:57:52.944Z,29.30
2018-08-28T14:00:21.578Z,29.00
2018-08-28T14:02:50.519Z,29.30
2018-08-28T14:05:19.631Z,29.50
2018-08-28T14:07:48.689Z,29.30
2018-08-28T14:10:25.263Z,29.60
2018-08-28T14:12:55.565Z,29.60
2018-08-28T14:15:25.003Z,29.60
2018-08-28T14:17:59.666Z,29.40
2018-08-28T14:20:29.267Z,29.20
2018-08-28T14:23:02.724Z,29.20
2018-08-28T14:25:31.324Z,29.20
2018-08-28T14:27:59.998Z,29.70
2018-08-28T14:30:28.666Z,29.50
2018-08-28T14:32:57.678Z,29.30
2018-08-28T14:35:26.682Z,29.40
2018-08-28T14:37:55.412Z,28.80
2018-08-28T14:40:24.492Z,28.60
2018-08-28T14:42:53.326Z,28.50
2018-08-28T14:45:27.558Z,28.90
2018-08-28T14:47:59.339Z,28.50
2018-08-28T14:50:28.188Z,28.70
2018-08-28T14:52:56.929Z,28.60
2018-08-28T14:55:25.971Z,28.70
2018-08-28T14:57:55.865Z,28.50
2018-08-28T15:00:25.629Z,28.00
2018-08-28T15:02:54.578Z,28.20
2018-08-28T15:05:23.543Z,28.20
2018-08-28T15:07:52.340Z,28.10
2018-08-28T15:10:22.078Z,27.90
2018-08-28T15:12:55.555Z,27.60
2018-08-28T15:15:24.443Z,27.80
2018-08-28T15:17:53.695Z,27.40
2018-08-28T15:20:22.495Z,27.40
2018-08-28T15:22:51.500Z,27.40
2018-08-28T15:25:20.642Z,27.30
2018-08-28T15:27:49.767Z,27.40
2018-08-28T15:30:28.755Z,27.30
2018-08-28T15:32:57.591Z,27.10
2018-08-28T15:35:26.458Z,26.70
2018-08-28T15:37:55.352Z,26.70
2018-08-28T15:40:30.045Z,26.40
2018-08-28T15:42:58.903Z,26.30
2018-08-28T15:45:30.820Z,26.20
2018-08-28T15:47:59.443Z,26.20
2018-08-28T15:50:28.024Z,26.00
2018-08-28T15:52:56.654Z,26.00
2018-08-28T15:55:25.535Z,25.80
2018-08-28T15:57:54.890Z,25.80
2018-08-28T16:00:23.641Z,25.80
2018-08-28T16:02:52.501Z,25.70
2018-08-28T16:05:21.638Z,25.50
2018-08-28T16:07:50.715Z,25.30
2018-08-28T16:10:19.818Z,25.20
2018-08-28T16:12:48.943Z,25.00
2018-08-28T16:15:17.897Z,24.90
2018-08-28T16:17:47.009Z,24.90
2018-08-28T16:20:15.766Z,25.00
2018-08-28T16:23:05.059Z,24.90
2018-08-28T16:25:33.715Z,24.80
2018-08-28T16:28:02.897Z,24.50
2018-08-28T16:30:31.598Z,24.30
2018-08-28T16:33:00.306Z,24.20
2018-08-28T16:35:28.910Z,24.10
2018-08-28T16:37:57.633Z,24.00
2018-08-28T16:40:26.416Z,24.00
2018-08-28T16:42:56.803Z,24.00
2018-08-28T16:45:25.547Z,23.90
2018-08-28T16:47:54.384Z,24.00
2018-08-28T16:50:23.319Z,24.00
2018-08-28T16:52:52.436Z,24.00
2018-08-28T16:55:21.277Z,23.90
2018-08-28T16:57:50.331Z,24.10
2018-08-28T17:00:19.738Z,24.10
2018-08-28T17:02:48.672Z,24.10
2018-08-28T17:05:17.664Z,24.20
2018-08-28T17:07:47.082Z,24.10
2018-08-28T17:10:15.825Z,24.00
2018-08-28T17:12:44.444Z,23.80
2018-08-28T17:15:13.171Z,23.70
2018-08-28T17:17:41.827Z,23.60
2018-08-28T17:20:10.535Z,23.40
2018-08-28T17:22:39.252Z,23.30
2018-08-28T17:25:07.891Z,23.20
2018-08-28T17:27:36.482Z,23.10
2018-08-28T17:30:05.587Z,23.00
2018-08-28T17:32:34.270Z,22.90
2018-08-28T17:35:02.971Z,22.80
2018-08-28T17:37:31.662Z,22.60
2018-08-28T17:40:00.274Z,22.50
2018-08-28T17:42:29.007Z,22.40
2018-08-28T17:44:57.727Z,22.30
2018-08-28T17:47:26.523Z,22.20
2018-08-28T17:49:55.138Z,22.10
2018-08-28T17:52:23.942Z,22.00
2018-08-28T17:54:52.948Z,21.90
2018-08-28T17:57:22.252Z,21.80
2018-08-28T17:59:51.244Z,21.80
2018-08-28T18:02:20.326Z,21.60
2018-08-28T18:04:49.581Z,21.50
2018-08-28T18:07:19.070Z,21.40
2018-08-28T18:09:48.015Z,21.30
2018-08-28T18:12:16.996Z,21.20
2018-08-28T18:14:45.904Z,21.10
2018-08-28T18:17:14.693Z,20.90
2018-08-28T18:19:43.308Z,20.80
2018-08-28T18:22:12.196Z,20.60
2018-08-28T18:24:40.826Z,20.50
2018-08-28T18:27:09.430Z,20.40
2018-08-28T18:29:38.141Z,20.30
2018-08-28T18:32:06.767Z,20.20
2018-08-28T18:34:35.675Z,20.10
2018-08-28T18:37:04.428Z,20.00
2018-08-28T18:39:33.094Z,19.90
2018-08-28T18:42:01.943Z,19.90
2018-08-28T18:44:30.904Z,19.80
2018-08-28T18:46:59.617Z,19.80
2018-08-28T18:49:28.260Z,19.70
2018-08-28T18:51:57.783Z,19.70
2018-08-28T18:54:26.792Z,19.60
2018-08-28T18:56:55.840Z,19.60
2018-08-28T18:59:25.708Z,19.50
2018-08-28T19:01:54.680Z,19.60
2018-08-28T19:04:23.702Z,19.50
2018-08-28T19:06:52.910Z,19.50
2018-08-28T19:09:22.462Z,19.50
2018-08-28T19:11:51.506Z,19.50
2018-08-28T19:14:20.968Z,19.50
2018-08-28T19:16:50.501Z,19.50
2018-08-28T19:19:19.935Z,19.50
2018-08-28T19:21:49.902Z,19.50
2018-08-28T19:24:20.389Z,19.50
2018-08-28T19:26:52.321Z,19.50
2018-08-28T19:29:21.765Z,19.50
2018-08-28T19:31:51.642Z,19.40
2018-08-28T19:34:23.757Z,19.40
2018-08-28T19:36:53.003Z,19.40
2018-08-28T19:39:22.404Z,19.40
2018-08-28T19:41:51.350Z,19.30
2018-08-28T19:44:20.743Z,19.30
2018-08-28T19:46:54.768Z,19.40
2018-08-28T19:49:24.140Z,19.30
2018-08-28T19:51:53.523Z,19.30
2018-08-28T19:54:23.067Z,19.30
2018-08-28T19:56:53.048Z,19.30
2018-08-28T19:59:22.394Z,19.20
2018-08-28T20:01:51.743Z,19.20
2018-08-28T20:04:21.288Z,19.10
2018-08-28T20:06:50.541Z,19.10
2018-08-28T20:09:24.203Z,19.10
2018-08-28T20:11:53.628Z,19.10
2018-08-28T20:14:22.825Z,19.10
2018-08-28T20:16:52.483Z,19.00
2018-08-28T20:19:22.290Z,19.00
2018-08-28T20:21:52.134Z,19.00
2018-08-28T20:24:21.892Z,19.00
2018-08-28T20:26:51.374Z,19.00
2018-08-28T20:29:20.599Z,18.90
2018-08-28T20:31:49.970Z,18.80
2018-08-28T20:34:19.565Z,18.80
2018-08-28T20:36:49.425Z,18.90
2018-08-28T20:39:18.675Z,18.90
2018-08-28T20:41:48.272Z,18.90
2018-08-28T20:44:17.971Z,18.80
2018-08-28T20:46:46.882Z,18.80
2018-08-28T20:49:15.926Z,18.80
2018-08-28T20:51:44.530Z,18.80
2018-08-28T20:54:13.144Z,18.80
2018-08-28T20:56:41.725Z,18.70
2018-08-28T20:59:10.342Z,18.70
2018-08-28T21:01:39.006Z,18.70
2018-08-28T21:04:07.826Z,18.60
2018-08-28T21:06:36.509Z,18.60
2018-08-28T21:09:06.254Z,18.50
2018-08-28T21:11:34.881Z,18.50
2018-08-28T21:14:03.519Z,18.50
2018-08-28T21:16:32.137Z,18.50
2018-08-28T21:19:00.773Z,18.40
2018-08-28T21:21:29.508Z,18.40
2018-08-28T21:23:58.507Z,18.40
2018-08-28T21:26:27.552Z,18.30
2018-08-28T21:28:56.721Z,18.30
2018-08-28T21:31:25.716Z,18.30
2018-08-28T21:33:55.375Z,18.20
2018-08-28T21:36:24.554Z,18.20
2018-08-28T21:38:53.729Z,18.30
2018-08-28T21:41:23.125Z,18.30
2018-08-28T21:43:52.177Z,18.20
2018-08-28T21:46:21.950Z,18.20
2018-08-28T21:48:51.816Z,18.20
2018-08-28T21:51:21.063Z,18.30
2018-08-28T21:53:50.339Z,18.20
2018-08-28T21:56:19.769Z,18.20
2018-08-28T21:58:49.186Z,18.10
2018-08-28T22:01:18.523Z,18.10
2018-08-28T22:03:48.211Z,18.20
2018-08-28T22:06:22.636Z,18.10
2018-08-28T22:08:52.211Z,18.10
2018-08-28T22:11:21.799Z,18.10
2018-08-28T22:13:51.189Z,18.10
2018-08-28T22:16:21.130Z,18.00
2018-08-28T22:18:50.319Z,18.00
2018-08-28T22:21:19.751Z,18.00
2018-08-28T22:23:49.395Z,18.00
2018-08-28T22:26:19.321Z,17.90
2018-08-28T22:28:48.784Z,17.90
2018-08-28T22:31:18.178Z,17.90
2018-08-28T22:33:47.872Z,17.80
2018-08-28T22:36:17.706Z,17.80
2018-08-28T22:38:46.971Z,17.80
2018-08-28T22:41:15.984Z,17.80
2018-08-28T22:43:44.934Z,17.70
2018-08-28T22:46:13.558Z,17.70
2018-08-28T22:48:42.143Z,17.60
2018-08-28T22:51:10.751Z,17.60
2018-08-28T22:53:39.341Z,17.50
2018-08-28T22:56:07.944Z,17.50
2018-08-28T22:58:36.546Z,17.50
2018-08-28T23:01:05.192Z,17.50
2018-08-28T23:03:33.788Z,17.40
2018-08-28T23:06:02.415Z,17.40
2018-08-28T23:08:31.080Z,17.30
2018-08-28T23:10:59.778Z,17.30
2018-08-28T23:13:28.739Z,17.30
2018-08-28T23:15:57.891Z,17.30
2018-08-28T23:18:26.979Z,17.30
2018-08-28T23:20:56.235Z,17.30
2018-08-28T23:23:25.527Z,17.20
2018-08-28T23:25:54.912Z,17.20
2018-08-28T23:28:24.327Z,17.20
2018-08-28T23:30:53.640Z,17.20
2018-08-28T23:33:22.808Z,17.20
2018-08-28T23:35:52.135Z,17.20
2018-08-28T23:38:21.197Z,17.10
2018-08-28T23:40:50.796Z,17.10
2018-08-28T23:43:20.386Z,17.10
2018-08-28T23:45:49.999Z,17.00
2018-08-28T23:48:19.567Z,17.00
2018-08-28T23:50:49.011Z,17.00
2018-08-28T23:53:18.521Z,17.00
2018-08-28T23:55:48.556Z,17.00
2018-08-28T23:58:19.643Z,17.00
